METAR Data
IDs: Format: Raw Decoded Include TAF

Data at: 0817 UTC 25 Apr 2019

KRTN 250753Z AUTO 07006KT 10SM CLR 04/01 A3000 RMK AO2 SLP102 T00440011
KRTN 250653Z AUTO 03004KT 10SM CLR 06/02 A3001 RMK AO2 SLP101 T00560017 402170011
KRTN 250553Z AUTO 03004KT 10SM CLR 07/01 A3000 RMK AO2 SLP100 T00720011 10206 20067 51004
KRTN 250453Z AUTO 32005KT 10SM CLR 07/01 A3000 RMK AO2 SLP100 T00720011
KRTN 250353Z AUTO 09003KT 10SM CLR 11/01 A3000 RMK AO2 SLP099 T01060006
KRTN 250253Z AUTO 35006KT 10SM CLR 10/01 A2999 RMK AO2 SLP107 T01000011 53013
KRTN 250153Z AUTO 03008KT 10SM SCT095 13/02 A2997 RMK AO2 SLP104 T01280017
KRTN 250053Z AUTO 05009KT 10SM CLR 17/00 A2995 RMK AO2 SLP093 T01720000
KRTN 242353Z AUTO 04010G18KT 10SM FEW100 21/M03 A2994 RMK AO2 SLP086 T02061028 10217 20167 56007
KRTN 242253Z AUTO 36012G17KT 10SM FEW095 21/M02 A2995 RMK AO2 SLP088 T02061022
KRTN 242153Z AUTO 03011KT 10SM FEW085 SCT100 21/M01 A2995 RMK AO2 SLP087 T02111006
KRTN 242053Z AUTO 03007KT 10SM SCT085 19/01 A2997 RMK AO2 SLP096 T01890006 56014
KRTN 241953Z AUTO 02007KT 10SM SCT070 19/00 A2998 RMK AO2 SLP096 T01940000
KRTN 241853Z AUTO 03014G19KT 10SM FEW080 19/01 A2999 RMK AO2 SLP098 T01940006
KRTN 241753Z AUTO 03014G24KT 10SM BKN075 18/01 A3002 RMK AO2 SLP108 T01830011 10189 20011 56010
KRTN 241653Z AUTO 02009KT 10SM FEW070 17/02 A3004 RMK AO2 SLP114 T01720017
KRTN 241553Z AUTO VRB03KT 10SM CLR 15/03 A3004 RMK AO2 SLP119 T01500033
KRTN 241453Z AUTO 00000KT 10SM CLR 09/04 A3006 RMK AO2 SLP139 T00940044 50007
KRTN 241353Z AUTO 07004KT 10SM CLR 06/03 A3006 RMK AO2 SLP144 T00610028
KRTN 241253Z AUTO 06006KT 10SM CLR 02/01 A3003 RMK AO2 SLP145 T00220006
KRTN 241153Z AUTO 01006KT 10SM OVC085 01/00 A3003 RMK AO2 SLP146 70017 T00110000 10056 20011 58000
KRTN 241105Z AUTO 06005KT 3SM BR FEW001 BKN090 02/01 A3003 RMK AO2 T00170006
KRTN 241100Z AUTO 04005KT 1 3/4SM BR FEW001 BKN090 01/00 A3003 RMK AO2 T00110000
KRTN 241053Z AUTO 04005KT 2SM BR FEW001 SCT080 02/01 A3003 RMK AO2 SLP147 T00170006
KRTN 241038Z AUTO 05005KT 5SM BR FEW001 02/01 A3003 RMK AO2 T00170006
KRTN 240953Z AUTO 03004KT 10SM CLR 02/01 A3003 RMK AO2 SLP144 T00220006
KRTN 240853Z AUTO 00000KT 10SM CLR 03/02 A3003 RMK AO2 SLP144 T00280017 56017
KRTN 240753Z AUTO 35007KT 10SM CLR 04/02 A3004 RMK AO2 SLP145 T00390017
KRTN 240653Z AUTO 00000KT 10SM CLR 05/03 A3007 RMK AO2 SLP157 T00500033 400890050
KRTN 240608Z AUTO 22003KT 10SM SCT022 06/04 A3009 RMK AO2 T00560039
KRTN 240553Z AUTO 23004KT 10SM BKN022 06/04 A3009 RMK AO2 SLP162 T00560039 10089 20056 58001
KRTN 240453Z AUTO 24003KT 10SM OVC023 07/04 A3010 RMK AO2 SLP161 T00670044
KRTN 240353Z AUTO 00000KT 10SM BKN018 OVC029 07/04 A3010 RMK AO2 SLP163 T00670044
KRTN 240308Z AUTO 21004KT 10SM SCT019 OVC029 07/04 A3010 RMK AO2 T00670039
KRTN 240253Z AUTO 21005KT 10SM SCT019 OVC030 07/04 A3010 RMK AO2 SLP161 T00670039 55002
KRTN 240201Z AUTO 21006KT 10SM OVC030 08/04 A3009 RMK AO2 T00780039
KRTN 240153Z AUTO 20006KT 10SM OVC029 08/04 A3009 RMK AO2 SLP158 T00780039
KRTN 240139Z AUTO 20008KT 10SM OVC029 08/04 A3009 RMK AO2 T00780039
KRTN 240053Z AUTO 20009KT 10SM OVC030 08/04 A3009 RMK AO2 SLP157 T00830044
KRTN 240044Z AUTO 20006KT 10SM FEW024 OVC030 09/03 A3009 RMK AO2 T00890033
KRTN 232353Z AUTO 20006KT 10SM OVC026 09/03 A3010 RMK AO2 SLP161 60008 T00890033 10089 20061 56012
KRTN 232253Z AUTO 20004KT 10SM OVC021 08/03 A3011 RMK AO2 SLP164 T00830033
KRTN 232153Z AUTO 12005KT 10SM BKN016 BKN026 08/04 A3012 RMK AO2 SLP168 T00830044
KRTN 232139Z AUTO 11005KT 10SM SCT014 OVC026 08/04 A3013 RMK AO2 T00830044
KRTN 232053Z AUTO 08007KT 10SM BKN013 BKN018 BKN065 08/05 A3015 RMK AO2 RAE25 SLP175 P0000 60008 T00780050 58014